sensor_id;sensor_type;location;lat;lon;timestamp;temperature;humidity
64888;DHT22;51386;53.082;8.816;2023-07-29T00:01:41;21.50;94.40
64888;DHT22;51386;53.082;8.816;2023-07-29T00:04:09;21.50;94.50
64888;DHT22;51386;53.082;8.816;2023-07-29T00:06:36;21.50;94.40
64888;DHT22;51386;53.082;8.816;2023-07-29T00:09:03;21.50;94.50
64888;DHT22;51386;53.082;8.816;2023-07-29T00:11:31;21.50;94.60
64888;DHT22;51386;53.082;8.816;2023-07-29T00:14:01;21.50;94.50
64888;DHT22;51386;53.082;8.816;2023-07-29T00:16:28;21.50;94.50
64888;DHT22;51386;53.082;8.816;2023-07-29T00:18:55;21.50;94.60
64888;DHT22;51386;53.082;8.816;2023-07-29T00:21:23;21.50;94.60
64888;DHT22;51386;53.082;8.816;2023-07-29T00:23:50;21.50;94.60
64888;DHT22;51386;53.082;8.816;2023-07-29T00:26:17;21.60;94.60
64888;DHT22;51386;53.082;8.816;2023-07-29T00:28:44;21.60;94.60
64888;DHT22;51386;53.082;8.816;2023-07-29T00:31:12;21.60;94.60
64888;DHT22;51386;53.082;8.816;2023-07-29T00:33:39;21.60;94.50
64888;DHT22;51386;53.082;8.816;2023-07-29T00:36:06;21.60;94.40
64888;DHT22;51386;53.082;8.816;2023-07-29T00:38:33;21.60;94.50
64888;DHT22;51386;53.082;8.816;2023-07-29T00:41:00;21.60;94.50
64888;DHT22;51386;53.082;8.816;2023-07-29T00:43:29;21.60;94.50
64888;DHT22;51386;53.082;8.816;2023-07-29T00:45:56;21.70;94.50
64888;DHT22;51386;53.082;8.816;2023-07-29T00:48:27;21.70;94.60
64888;DHT22;51386;53.082;8.816;2023-07-29T00:50:55;21.70;94.50
64888;DHT22;51386;53.082;8.816;2023-07-29T00:53:22;21.70;94.30
64888;DHT22;51386;53.082;8.816;2023-07-29T00:55:49;21.80;94.20
64888;DHT22;51386;53.082;8.816;2023-07-29T00:58:16;21.70;94.20
64888;DHT22;51386;53.082;8.816;2023-07-29T01:00:43;21.70;94.10
64888;DHT22;51386;53.082;8.816;2023-07-29T01:03:10;21.70;94.00
64888;DHT22;51386;53.082;8.816;2023-07-29T01:05:45;21.70;94.00
64888;DHT22;51386;53.082;8.816;2023-07-29T01:08:36;21.60;94.10
64888;DHT22;51386;53.082;8.816;2023-07-29T01:11:22;21.60;94.10
64888;DHT22;51386;53.082;8.816;2023-07-29T01:14:01;21.50;94.10
64888;DHT22;51386;53.082;8.816;2023-07-29T01:16:39;21.50;94.20
64888;DHT22;51386;53.082;8.816;2023-07-29T01:19:16;21.40;94.20
64888;DHT22;51386;53.082;8.816;2023-07-29T01:21:58;21.30;94.40
64888;DHT22;51386;53.082;8.816;2023-07-29T01:24:27;21.30;94.50
64888;DHT22;51386;53.082;8.816;2023-07-29T01:26:54;21.30;94.60
64888;DHT22;51386;53.082;8.816;2023-07-29T01:29:22;21.20;94.60
64888;DHT22;51386;53.082;8.816;2023-07-29T01:31:51;21.20;94.70
64888;DHT22;51386;53.082;8.816;2023-07-29T01:34:26;21.10;94.80
64888;DHT22;51386;53.082;8.816;2023-07-29T01:36:57;21.10;94.80
64888;DHT22;51386;53.082;8.816;2023-07-29T01:39:32;21.10;94.90
64888;DHT22;51386;53.082;8.816;2023-07-29T01:42:03;21.00;94.80
64888;DHT22;51386;53.082;8.816;2023-07-29T01:44:30;21.00;94.90
64888;DHT22;51386;53.082;8.816;2023-07-29T01:46:59;20.90;94.90
64888;DHT22;51386;53.082;8.816;2023-07-29T01:49:26;21.00;95.00
64888;DHT22;51386;53.082;8.816;2023-07-29T01:51:53;20.90;94.90
64888;DHT22;51386;53.082;8.816;2023-07-29T01:54:20;20.90;94.90
64888;DHT22;51386;53.082;8.816;2023-07-29T01:56:49;20.90;95.00
64888;DHT22;51386;53.082;8.816;2023-07-29T01:59:17;20.80;94.90
64888;DHT22;51386;53.082;8.816;2023-07-29T02:01:44;20.80;95.00
64888;DHT22;51386;53.082;8.816;2023-07-29T02:08:19;20.80;95.10
64888;DHT22;51386;53.082;8.816;2023-07-29T02:10:46;20.70;95.00
64888;DHT22;51386;53.082;8.816;2023-07-29T02:13:14;20.80;95.20
64888;DHT22;51386;53.082;8.816;2023-07-29T02:15:41;20.70;95.20
64888;DHT22;51386;53.082;8.816;2023-07-29T02:18:08;20.80;95.20
64888;DHT22;51386;53.082;8.816;2023-07-29T02:20:35;20.80;95.10
64888;DHT22;51386;53.082;8.816;2023-07-29T02:23:02;20.80;95.10
64888;DHT22;51386;53.082;8.816;2023-07-29T02:25:29;20.80;95.00
64888;DHT22;51386;53.082;8.816;2023-07-29T02:27:56;20.80;95.00
64888;DHT22;51386;53.082;8.816;2023-07-29T02:30:24;20.70;94.90
64888;DHT22;51386;53.082;8.816;2023-07-29T02:32:51;20.70;94.90
64888;DHT22;51386;53.082;8.816;2023-07-29T02:35:19;20.70;94.90
64888;DHT22;51386;53.082;8.816;2023-07-29T02:37:46;20.60;94.90
64888;DHT22;51386;53.082;8.816;2023-07-29T02:40:13;20.60;95.00
64888;DHT22;51386;53.082;8.816;2023-07-29T02:42:40;20.50;95.00
64888;DHT22;51386;53.082;8.816;2023-07-29T02:45:07;20.50;95.00
64888;DHT22;51386;53.082;8.816;2023-07-29T02:47:38;20.40;95.10
64888;DHT22;51386;53.082;8.816;2023-07-29T02:50:06;20.40;95.10
64888;DHT22;51386;53.082;8.816;2023-07-29T02:52:33;20.40;95.20
64888;DHT22;51386;53.082;8.816;2023-07-29T02:55:00;20.30;95.20
64888;DHT22;51386;53.082;8.816;2023-07-29T02:57:27;20.30;95.30
64888;DHT22;51386;53.082;8.816;2023-07-29T02:59:54;20.30;95.30
64888;DHT22;51386;53.082;8.816;2023-07-29T03:02:21;20.30;95.30
64888;DHT22;51386;53.082;8.816;2023-07-29T03:04:50;20.20;95.30
64888;DHT22;51386;53.082;8.816;2023-07-29T03:07:17;20.20;95.30
64888;DHT22;51386;53.082;8.816;2023-07-29T03:09:44;20.20;95.40
64888;DHT22;51386;53.082;8.816;2023-07-29T03:12:11;20.20;95.40
64888;DHT22;51386;53.082;8.816;2023-07-29T03:14:38;20.20;95.40
64888;DHT22;51386;53.082;8.816;2023-07-29T03:17:08;20.10;95.50
64888;DHT22;51386;53.082;8.816;2023-07-29T03:19:34;20.10;95.50
64888;DHT22;51386;53.082;8.816;2023-07-29T03:22:03;20.10;95.60
64888;DHT22;51386;53.082;8.816;2023-07-29T03:24:30;20.10;95.60
64888;DHT22;51386;53.082;8.816;2023-07-29T03:26:57;20.00;95.60
64888;DHT22;51386;53.082;8.816;2023-07-29T03:29:24;20.00;95.70
64888;DHT22;51386;53.082;8.816;2023-07-29T03:31:51;20.00;95.70
64888;DHT22;51386;53.082;8.816;2023-07-29T03:34:18;20.00;95.70
64888;DHT22;51386;53.082;8.816;2023-07-29T03:36:45;20.00;95.70
64888;DHT22;51386;53.082;8.816;2023-07-29T03:39:15;20.00;95.70
64888;DHT22;51386;53.082;8.816;2023-07-29T03:41:42;20.10;95.80
64888;DHT22;51386;53.082;8.816;2023-07-29T03:44:09;20.10;95.80
64888;DHT22;51386;53.082;8.816;2023-07-29T03:46:36;20.10;96.10
64888;DHT22;51386;53.082;8.816;2023-07-29T03:49:04;20.10;95.80
64888;DHT22;51386;53.082;8.816;2023-07-29T03:51:31;20.10;95.80
64888;DHT22;51386;53.082;8.816;2023-07-29T03:53:58;20.20;95.70
64888;DHT22;51386;53.082;8.816;2023-07-29T03:56:26;20.20;95.70
64888;DHT22;51386;53.082;8.816;2023-07-29T03:58:53;20.20;95.70
64888;DHT22;51386;53.082;8.816;2023-07-29T04:01:28;20.20;95.70
64888;DHT22;51386;53.082;8.816;2023-07-29T04:03:55;20.20;95.70
64888;DHT22;51386;53.082;8.816;2023-07-29T04:06:23;20.30;95.70
64888;DHT22;51386;53.082;8.816;2023-07-29T04:08:50;20.30;95.60
64888;DHT22;51386;53.082;8.816;2023-07-29T04:11:17;20.40;95.60
64888;DHT22;51386;53.082;8.816;2023-07-29T04:13:45;20.40;95.80
64888;DHT22;51386;53.082;8.816;2023-07-29T04:16:12;20.40;95.40
64888;DHT22;51386;53.082;8.816;2023-07-29T04:18:40;20.40;95.20
64888;DHT22;51386;53.082;8.816;2023-07-29T04:21:07;20.40;95.20
64888;DHT22;51386;53.082;8.816;2023-07-29T04:23:34;20.50;95.20
64888;DHT22;51386;53.082;8.816;2023-07-29T04:26:01;20.50;95.30
64888;DHT22;51386;53.082;8.816;2023-07-29T04:28:28;20.50;95.20
64888;DHT22;51386;53.082;8.816;2023-07-29T04:30:57;20.60;95.10
64888;DHT22;51386;53.082;8.816;2023-07-29T04:33:24;20.60;95.00
64888;DHT22;51386;53.082;8.816;2023-07-29T04:35:51;20.60;94.80
64888;DHT22;51386;53.082;8.816;2023-07-29T04:38:18;20.60;94.80
64888;DHT22;51386;53.082;8.816;2023-07-29T04:40:45;20.60;94.80
64888;DHT22;51386;53.082;8.816;2023-07-29T04:43:12;20.60;94.70
64888;DHT22;51386;53.082;8.816;2023-07-29T04:45:42;20.60;95.10
64888;DHT22;51386;53.082;8.816;2023-07-29T04:48:11;20.60;94.80
64888;DHT22;51386;53.082;8.816;2023-07-29T04:50:38;20.60;94.70
64888;DHT22;51386;53.082;8.816;2023-07-29T04:53:05;20.60;94.80
64888;DHT22;51386;53.082;8.816;2023-07-29T04:55:32;20.60;94.70
64888;DHT22;51386;53.082;8.816;2023-07-29T04:57:59;20.60;94.70
64888;DHT22;51386;53.082;8.816;2023-07-29T05:00:26;20.60;94.80
64888;DHT22;51386;53.082;8.816;2023-07-29T05:02:53;20.60;94.70
64888;DHT22;51386;53.082;8.816;2023-07-29T05:05:22;20.60;94.60
64888;DHT22;51386;53.082;8.816;2023-07-29T05:07:49;20.60;94.70
64888;DHT22;51386;53.082;8.816;2023-07-29T05:10:16;20.60;94.70
64888;DHT22;51386;53.082;8.816;2023-07-29T05:12:43;20.60;94.70
64888;DHT22;51386;53.082;8.816;2023-07-29T05:15:10;20.60;94.70
64888;DHT22;51386;53.082;8.816;2023-07-29T05:17:37;20.60;94.80
64888;DHT22;51386;53.082;8.816;2023-07-29T05:20:06;20.60;94.80
64888;DHT22;51386;53.082;8.816;2023-07-29T05:22:35;20.60;94.90
64888;DHT22;51386;53.082;8.816;2023-07-29T05:25:03;20.60;94.90
64888;DHT22;51386;53.082;8.816;2023-07-29T05:27:30;20.70;95.00
64888;DHT22;51386;53.082;8.816;2023-07-29T05:29:57;20.70;95.00
64888;DHT22;51386;53.082;8.816;2023-07-29T05:32:24;20.80;95.00
64888;DHT22;51386;53.082;8.816;2023-07-29T05:34:51;20.80;95.00
64888;DHT22;51386;53.082;8.816;2023-07-29T05:37:18;20.90;95.00
64888;DHT22;51386;53.082;8.816;2023-07-29T05:39:46;20.90;94.90
64888;DHT22;51386;53.082;8.816;2023-07-29T05:42:14;20.90;94.90
64888;DHT22;51386;53.082;8.816;2023-07-29T05:44:41;21.00;94.90
64888;DHT22;51386;53.082;8.816;2023-07-29T05:47:08;21.00;94.80
64888;DHT22;51386;53.082;8.816;2023-07-29T05:49:35;21.10;94.80
64888;DHT22;51386;53.082;8.816;2023-07-29T05:52:02;21.10;94.50
64888;DHT22;51386;53.082;8.816;2023-07-29T05:54:29;21.10;94.50
64888;DHT22;51386;53.082;8.816;2023-07-29T05:56:58;21.10;94.60
64888;DHT22;51386;53.082;8.816;2023-07-29T05:59:25;21.10;94.60
64888;DHT22;51386;53.082;8.816;2023-07-29T06:01:52;21.10;94.60
64888;DHT22;51386;53.082;8.816;2023-07-29T06:04:19;21.10;94.70
64888;DHT22;51386;53.082;8.816;2023-07-29T06:06:46;21.10;94.70
64888;DHT22;51386;53.082;8.816;2023-07-29T06:09:13;21.10;94.90
64888;DHT22;51386;53.082;8.816;2023-07-29T06:11:40;21.10;94.80
64888;DHT22;51386;53.082;8.816;2023-07-29T06:14:08;21.20;95.00
64888;DHT22;51386;53.082;8.816;2023-07-29T06:16:35;21.20;95.00
64888;DHT22;51386;53.082;8.816;2023-07-29T06:19:02;21.20;95.00
64888;DHT22;51386;53.082;8.816;2023-07-29T06:21:30;21.20;95.00
64888;DHT22;51386;53.082;8.816;2023-07-29T06:23:57;21.20;95.40
64888;DHT22;51386;53.082;8.816;2023-07-29T06:26:24;21.30;95.10
64888;DHT22;51386;53.082;8.816;2023-07-29T06:28:51;21.30;95.10
64888;DHT22;51386;53.082;8.816;2023-07-29T06:31:19;21.40;95.20
64888;DHT22;51386;53.082;8.816;2023-07-29T06:33:46;21.40;95.10
64888;DHT22;51386;53.082;8.816;2023-07-29T06:36:13;21.50;95.10
64888;DHT22;51386;53.082;8.816;2023-07-29T06:38:40;21.50;95.10
64888;DHT22;51386;53.082;8.816;2023-07-29T06:41:08;21.60;94.90
64888;DHT22;51386;53.082;8.816;2023-07-29T06:43:38;21.60;94.80
64888;DHT22;51386;53.082;8.816;2023-07-29T06:46:05;21.70;94.60
64888;DHT22;51386;53.082;8.816;2023-07-29T06:48:34;21.70;94.50
64888;DHT22;51386;53.082;8.816;2023-07-29T06:51:01;21.70;94.50
64888;DHT22;51386;53.082;8.816;2023-07-29T06:53:29;21.70;94.40
64888;DHT22;51386;53.082;8.816;2023-07-29T06:56:00;21.70;94.50
64888;DHT22;51386;53.082;8.816;2023-07-29T06:58:27;21.70;94.50
64888;DHT22;51386;53.082;8.816;2023-07-29T07:00:54;21.70;94.40
64888;DHT22;51386;53.082;8.816;2023-07-29T07:03:23;21.70;94.40
64888;DHT22;51386;53.082;8.816;2023-07-29T07:05:52;21.80;94.20
64888;DHT22;51386;53.082;8.816;2023-07-29T07:08:19;21.80;94.00
64888;DHT22;51386;53.082;8.816;2023-07-29T07:10:46;21.80;93.90
64888;DHT22;51386;53.082;8.816;2023-07-29T07:13:14;21.80;94.00
64888;DHT22;51386;53.082;8.816;2023-07-29T07:15:41;21.90;93.60
64888;DHT22;51386;53.082;8.816;2023-07-29T07:18:08;21.90;93.60
64888;DHT22;51386;53.082;8.816;2023-07-29T07:20:36;21.90;93.90
64888;DHT22;51386;53.082;8.816;2023-07-29T07:23:04;21.90;93.50
64888;DHT22;51386;53.082;8.816;2023-07-29T07:25:38;21.90;93.60
64888;DHT22;51386;53.082;8.816;2023-07-29T07:28:05;22.00;93.80
64888;DHT22;51386;53.082;8.816;2023-07-29T07:30:32;22.00;93.70
64888;DHT22;51386;53.082;8.816;2023-07-29T07:32:59;22.00;93.50
64888;DHT22;51386;53.082;8.816;2023-07-29T07:35:26;22.10;93.40
64888;DHT22;51386;53.082;8.816;2023-07-29T07:37:53;22.10;93.50
64888;DHT22;51386;53.082;8.816;2023-07-29T07:40:21;22.20;93.40
64888;DHT22;51386;53.082;8.816;2023-07-29T07:42:48;22.20;93.30
64888;DHT22;51386;53.082;8.816;2023-07-29T07:45:15;22.30;92.80
64888;DHT22;51386;53.082;8.816;2023-07-29T07:47:44;22.30;92.60
64888;DHT22;51386;53.082;8.816;2023-07-29T07:50:11;22.40;92.50
64888;DHT22;51386;53.082;8.816;2023-07-29T07:52:38;22.40;92.10
64888;DHT22;51386;53.082;8.816;2023-07-29T07:55:06;22.40;92.00
64888;DHT22;51386;53.082;8.816;2023-07-29T07:57:36;22.40;92.10
64888;DHT22;51386;53.082;8.816;2023-07-29T08:00:04;22.40;92.10
64888;DHT22;51386;53.082;8.816;2023-07-29T08:02:32;22.40;91.50
64888;DHT22;51386;53.082;8.816;2023-07-29T08:04:59;22.40;91.50
64888;DHT22;51386;53.082;8.816;2023-07-29T08:07:26;22.40;91.30
64888;DHT22;51386;53.082;8.816;2023-07-29T08:09:53;22.40;91.10
64888;DHT22;51386;53.082;8.816;2023-07-29T08:12:20;22.50;91.30
64888;DHT22;51386;53.082;8.816;2023-07-29T08:14:48;22.60;91.30
64888;DHT22;51386;53.082;8.816;2023-07-29T08:17:15;22.80;91.20
64888;DHT22;51386;53.082;8.816;2023-07-29T08:19:42;23.00;91.20
64888;DHT22;51386;53.082;8.816;2023-07-29T08:22:09;23.20;90.90
64888;DHT22;51386;53.082;8.816;2023-07-29T08:24:36;23.50;90.50
64888;DHT22;51386;53.082;8.816;2023-07-29T08:27:03;23.80;87.30
64888;DHT22;51386;53.082;8.816;2023-07-29T08:29:31;24.20;84.60
64888;DHT22;51386;53.082;8.816;2023-07-29T08:31:59;24.60;85.60
64888;DHT22;51386;53.082;8.816;2023-07-29T08:34:26;24.90;83.20
64888;DHT22;51386;53.082;8.816;2023-07-29T08:36:53;25.10;79.20
64888;DHT22;51386;53.082;8.816;2023-07-29T08:39:20;25.20;79.50
64888;DHT22;51386;53.082;8.816;2023-07-29T08:41:53;25.30;78.50
64888;DHT22;51386;53.082;8.816;2023-07-29T08:44:26;25.20;77.80
64888;DHT22;51386;53.082;8.816;2023-07-29T08:46:59;25.10;77.90
64888;DHT22;51386;53.082;8.816;2023-07-29T08:49:27;25.10;78.60
64888;DHT22;51386;53.082;8.816;2023-07-29T08:51:57;25.00;78.80
64888;DHT22;51386;53.082;8.816;2023-07-29T08:54:25;25.00;78.40
64888;DHT22;51386;53.082;8.816;2023-07-29T08:56:52;24.90;78.00
64888;DHT22;51386;53.082;8.816;2023-07-29T08:59:20;25.10;78.00
64888;DHT22;51386;53.082;8.816;2023-07-29T09:01:47;25.20;78.20
64888;DHT22;51386;53.082;8.816;2023-07-29T09:04:17;25.40;77.80
64888;DHT22;51386;53.082;8.816;2023-07-29T09:06:45;25.70;76.00
64888;DHT22;51386;53.082;8.816;2023-07-29T09:09:16;26.10;74.70
64888;DHT22;51386;53.082;8.816;2023-07-29T09:11:43;26.30;73.50
64888;DHT22;51386;53.082;8.816;2023-07-29T09:14:11;26.60;72.80
64888;DHT22;51386;53.082;8.816;2023-07-29T09:16:40;26.90;71.20
64888;DHT22;51386;53.082;8.816;2023-07-29T09:19:07;27.20;71.00
64888;DHT22;51386;53.082;8.816;2023-07-29T09:21:38;27.40;70.00
64888;DHT22;51386;53.082;8.816;2023-07-29T09:24:07;27.60;68.10
64888;DHT22;51386;53.082;8.816;2023-07-29T09:26:35;27.50;67.20
64888;DHT22;51386;53.082;8.816;2023-07-29T09:29:03;27.40;67.40
64888;DHT22;51386;53.082;8.816;2023-07-29T09:31:30;27.20;67.60
64888;DHT22;51386;53.082;8.816;2023-07-29T09:33:58;26.80;66.80
64888;DHT22;51386;53.082;8.816;2023-07-29T09:36:27;26.60;66.50
64888;DHT22;51386;53.082;8.816;2023-07-29T09:38:58;26.30;67.30
64888;DHT22;51386;53.082;8.816;2023-07-29T09:41:26;26.30;68.70
64888;DHT22;51386;53.082;8.816;2023-07-29T09:43:59;26.40;69.10
64888;DHT22;51386;53.082;8.816;2023-07-29T09:46:32;26.70;68.70
64888;DHT22;51386;53.082;8.816;2023-07-29T09:49:03;27.10;66.20
64888;DHT22;51386;53.082;8.816;2023-07-29T09:51:30;27.50;64.30
64888;DHT22;51386;53.082;8.816;2023-07-29T09:54:02;27.90;63.30
64888;DHT22;51386;53.082;8.816;2023-07-29T09:56:30;28.20;62.10
64888;DHT22;51386;53.082;8.816;2023-07-29T09:58:58;28.40;60.60
64888;DHT22;51386;53.082;8.816;2023-07-29T10:01:25;28.60;61.10
64888;DHT22;51386;53.082;8.816;2023-07-29T10:03:53;28.90;60.90
64888;DHT22;51386;53.082;8.816;2023-07-29T10:06:24;29.20;58.30
64888;DHT22;51386;53.082;8.816;2023-07-29T10:08:52;29.70;58.30
64888;DHT22;51386;53.082;8.816;2023-07-29T10:11:21;30.10;57.60
64888;DHT22;51386;53.082;8.816;2023-07-29T10:13:49;30.50;56.10
64888;DHT22;51386;53.082;8.816;2023-07-29T10:16:34;30.50;55.00
64888;DHT22;51386;53.082;8.816;2023-07-29T10:19:04;30.60;54.40
64888;DHT22;51386;53.082;8.816;2023-07-29T10:21:31;30.70;54.50
64888;DHT22;51386;53.082;8.816;2023-07-29T10:24:01;30.80;54.10
64888;DHT22;51386;53.082;8.816;2023-07-29T10:26:34;30.80;53.80
64888;DHT22;51386;53.082;8.816;2023-07-29T10:29:12;30.80;54.10
64888;DHT22;51386;53.082;8.816;2023-07-29T10:31:42;31.00;53.40
64888;DHT22;51386;53.082;8.816;2023-07-29T10:34:11;31.30;52.90
64888;DHT22;51386;53.082;8.816;2023-07-29T10:36:39;31.60;51.80
64888;DHT22;51386;53.082;8.816;2023-07-29T10:39:08;32.00;51.10
64888;DHT22;51386;53.082;8.816;2023-07-29T10:41:58;32.10;48.60
64888;DHT22;51386;53.082;8.816;2023-07-29T10:44:46;32.00;47.20
64888;DHT22;51386;53.082;8.816;2023-07-29T10:47:18;31.50;47.50
64888;DHT22;51386;53.082;8.816;2023-07-29T10:49:48;31.00;48.90
64888;DHT22;51386;53.082;8.816;2023-07-29T10:52:29;30.50;50.20
64888;DHT22;51386;53.082;8.816;2023-07-29T10:54:58;29.90;51.50
64888;DHT22;51386;53.082;8.816;2023-07-29T10:57:34;29.40;53.00
64888;DHT22;51386;53.082;8.816;2023-07-29T11:00:03;28.90;54.50
64888;DHT22;51386;53.082;8.816;2023-07-29T11:02:34;28.50;55.70
64888;DHT22;51386;53.082;8.816;2023-07-29T11:05:05;28.20;56.70
64888;DHT22;51386;53.082;8.816;2023-07-29T11:07:44;27.90;57.90
64888;DHT22;51386;53.082;8.816;2023-07-29T11:10:12;27.70;58.80
64888;DHT22;51386;53.082;8.816;2023-07-29T11:12:46;27.50;58.70
64888;DHT22;51386;53.082;8.816;2023-07-29T11:15:17;27.40;58.90
64888;DHT22;51386;53.082;8.816;2023-07-29T11:17:46;27.30;58.60
64888;DHT22;51386;53.082;8.816;2023-07-29T11:20:16;27.20;58.40
64888;DHT22;51386;53.082;8.816;2023-07-29T11:22:44;27.20;58.30
64888;DHT22;51386;53.082;8.816;2023-07-29T11:25:13;27.00;58.70
64888;DHT22;51386;53.082;8.816;2023-07-29T11:27:41;26.90;59.00
64888;DHT22;51386;53.082;8.816;2023-07-29T11:30:11;26.80;59.10
64888;DHT22;51386;53.082;8.816;2023-07-29T11:32:41;26.60;59.40
64888;DHT22;51386;53.082;8.816;2023-07-29T11:35:10;26.60;59.70
64888;DHT22;51386;53.082;8.816;2023-07-29T11:37:40;26.50;59.80
64888;DHT22;51386;53.082;8.816;2023-07-29T11:40:08;26.30;59.70
64888;DHT22;51386;53.082;8.816;2023-07-29T11:42:37;26.20;59.70
64888;DHT22;51386;53.082;8.816;2023-07-29T11:45:06;26.10;60.00
64888;DHT22;51386;53.082;8.816;2023-07-29T11:47:36;26.20;61.20
64888;DHT22;51386;53.082;8.816;2023-07-29T11:50:05;26.10;61.40
64888;DHT22;51386;53.082;8.816;2023-07-29T11:52:33;26.10;61.20
64888;DHT22;51386;53.082;8.816;2023-07-29T11:55:02;26.10;61.60
64888;DHT22;51386;53.082;8.816;2023-07-29T11:57:30;26.10;61.60
64888;DHT22;51386;53.082;8.816;2023-07-29T11:59:57;26.00;61.80
64888;DHT22;51386;53.082;8.816;2023-07-29T12:02:25;26.00;61.90
64888;DHT22;51386;53.082;8.816;2023-07-29T12:04:54;26.00;62.10
64888;DHT22;51386;53.082;8.816;2023-07-29T12:07:23;26.00;61.60
64888;DHT22;51386;53.082;8.816;2023-07-29T12:09:52;26.00;61.80
64888;DHT22;51386;53.082;8.816;2023-07-29T12:12:19;25.90;62.20
64888;DHT22;51386;53.082;8.816;2023-07-29T12:14:49;25.90;62.30
64888;DHT22;51386;53.082;8.816;2023-07-29T12:17:16;26.00;62.60
64888;DHT22;51386;53.082;8.816;2023-07-29T12:19:45;26.00;62.30
64888;DHT22;51386;53.082;8.816;2023-07-29T12:22:18;26.10;62.30
64888;DHT22;51386;53.082;8.816;2023-07-29T12:24:46;26.10;62.50
64888;DHT22;51386;53.082;8.816;2023-07-29T12:27:14;26.20;62.80
64888;DHT22;51386;53.082;8.816;2023-07-29T12:29:44;26.20;61.90
64888;DHT22;51386;53.082;8.816;2023-07-29T12:32:13;26.30;62.00
64888;DHT22;51386;53.082;8.816;2023-07-29T12:34:40;26.30;61.40
64888;DHT22;51386;53.082;8.816;2023-07-29T12:37:08;26.30;61.70
64888;DHT22;51386;53.082;8.816;2023-07-29T12:39:41;26.40;61.90
64888;DHT22;51386;53.082;8.816;2023-07-29T12:42:09;26.40;62.00
64888;DHT22;51386;53.082;8.816;2023-07-29T12:44:37;26.40;62.30
64888;DHT22;51386;53.082;8.816;2023-07-29T12:47:06;26.50;62.40
64888;DHT22;51386;53.082;8.816;2023-07-29T12:49:33;26.60;62.60
64888;DHT22;51386;53.082;8.816;2023-07-29T12:52:00;26.70;62.20
64888;DHT22;51386;53.082;8.816;2023-07-29T12:54:27;26.90;61.20
64888;DHT22;51386;53.082;8.816;2023-07-29T12:56:55;26.90;60.50
64888;DHT22;51386;53.082;8.816;2023-07-29T12:59:22;26.90;60.10
64888;DHT22;51386;53.082;8.816;2023-07-29T13:01:49;26.90;59.90
64888;DHT22;51386;53.082;8.816;2023-07-29T13:04:16;26.90;59.60
64888;DHT22;51386;53.082;8.816;2023-07-29T13:06:43;26.90;59.90
64888;DHT22;51386;53.082;8.816;2023-07-29T13:09:10;26.90;60.10
64888;DHT22;51386;53.082;8.816;2023-07-29T13:11:37;26.90;59.70
64888;DHT22;51386;53.082;8.816;2023-07-29T13:14:06;26.90;60.00
64888;DHT22;51386;53.082;8.816;2023-07-29T13:16:33;27.00;60.20
64888;DHT22;51386;53.082;8.816;2023-07-29T13:19:00;27.00;60.00
64888;DHT22;51386;53.082;8.816;2023-07-29T13:21:27;27.00;60.20
64888;DHT22;51386;53.082;8.816;2023-07-29T13:23:54;27.10;60.20
64888;DHT22;51386;53.082;8.816;2023-07-29T13:26:21;27.10;59.80
64888;DHT22;51386;53.082;8.816;2023-07-29T13:28:48;27.10;59.70
64888;DHT22;51386;53.082;8.816;2023-07-29T13:31:16;27.10;59.40
64888;DHT22;51386;53.082;8.816;2023-07-29T13:33:43;27.10;59.60
64888;DHT22;51386;53.082;8.816;2023-07-29T13:36:10;27.00;59.60
64888;DHT22;51386;53.082;8.816;2023-07-29T13:38:37;26.90;59.80
64888;DHT22;51386;53.082;8.816;2023-07-29T13:41:04;27.00;60.20
64888;DHT22;51386;53.082;8.816;2023-07-29T13:43:32;27.10;61.30
64888;DHT22;51386;53.082;8.816;2023-07-29T13:45:59;27.30;59.90
64888;DHT22;51386;53.082;8.816;2023-07-29T13:48:27;27.50;59.00
64888;DHT22;51386;53.082;8.816;2023-07-29T13:50:54;27.70;59.20
64888;DHT22;51386;53.082;8.816;2023-07-29T13:53:21;27.80;58.50
64888;DHT22;51386;53.082;8.816;2023-07-29T13:55:48;27.90;58.80
64888;DHT22;51386;53.082;8.816;2023-07-29T13:58:15;28.00;58.40
64888;DHT22;51386;53.082;8.816;2023-07-29T14:00:42;28.10;58.10
64888;DHT22;51386;53.082;8.816;2023-07-29T14:03:10;28.00;57.60
64888;DHT22;51386;53.082;8.816;2023-07-29T14:05:38;28.00;57.30
64888;DHT22;51386;53.082;8.816;2023-07-29T14:08:05;28.00;57.20
64888;DHT22;51386;53.082;8.816;2023-07-29T14:10:32;27.90;57.50
64888;DHT22;51386;53.082;8.816;2023-07-29T14:12:59;27.90;57.50
64888;DHT22;51386;53.082;8.816;2023-07-29T14:15:26;27.80;58.10
64888;DHT22;51386;53.082;8.816;2023-07-29T14:17:55;27.70;58.50
64888;DHT22;51386;53.082;8.816;2023-07-29T14:20:22;27.70;58.50
64888;DHT22;51386;53.082;8.816;2023-07-29T14:22:50;27.70;58.20
64888;DHT22;51386;53.082;8.816;2023-07-29T14:25:17;27.80;57.20
64888;DHT22;51386;53.082;8.816;2023-07-29T14:27:45;27.70;57.00
64888;DHT22;51386;53.082;8.816;2023-07-29T14:30:12;27.70;57.50
64888;DHT22;51386;53.082;8.816;2023-07-29T14:32:39;27.70;57.50
64888;DHT22;51386;53.082;8.816;2023-07-29T14:35:07;27.60;57.30
64888;DHT22;51386;53.082;8.816;2023-07-29T14:37:35;27.60;57.60
64888;DHT22;51386;53.082;8.816;2023-07-29T14:40:04;27.60;57.80
64888;DHT22;51386;53.082;8.816;2023-07-29T14:42:32;27.60;57.90
64888;DHT22;51386;53.082;8.816;2023-07-29T14:45:02;27.60;58.30
64888;DHT22;51386;53.082;8.816;2023-07-29T14:47:29;27.70;57.80
64888;DHT22;51386;53.082;8.816;2023-07-29T14:50:01;27.70;57.50
64888;DHT22;51386;53.082;8.816;2023-07-29T14:52:28;27.70;58.00
64888;DHT22;51386;53.082;8.816;2023-07-29T14:54:55;27.70;58.10
64888;DHT22;51386;53.082;8.816;2023-07-29T14:57:23;27.60;58.10
64888;DHT22;51386;53.082;8.816;2023-07-29T14:59:50;27.60;58.20
64888;DHT22;51386;53.082;8.816;2023-07-29T15:02:18;27.50;58.40
64888;DHT22;51386;53.082;8.816;2023-07-29T15:04:45;27.40;59.40
64888;DHT22;51386;53.082;8.816;2023-07-29T15:07:12;27.20;61.50
64888;DHT22;51386;53.082;8.816;2023-07-29T15:09:39;26.90;62.60
64888;DHT22;51386;53.082;8.816;2023-07-29T15:12:07;26.80;62.10
64888;DHT22;51386;53.082;8.816;2023-07-29T15:14:36;26.60;62.00
64888;DHT22;51386;53.082;8.816;2023-07-29T15:17:03;26.30;61.30
64888;DHT22;51386;53.082;8.816;2023-07-29T15:19:31;26.20;61.20
64888;DHT22;51386;53.082;8.816;2023-07-29T15:21:58;26.00;63.10
64888;DHT22;51386;53.082;8.816;2023-07-29T15:24:25;25.80;65.40
64888;DHT22;51386;53.082;8.816;2023-07-29T15:26:51;25.70;67.10
64888;DHT22;51386;53.082;8.816;2023-07-29T15:29:18;25.50;68.50
64888;DHT22;51386;53.082;8.816;2023-07-29T15:31:47;25.40;70.30
64888;DHT22;51386;53.082;8.816;2023-07-29T15:34:14;25.20;71.60
64888;DHT22;51386;53.082;8.816;2023-07-29T15:36:42;25.00;72.80
64888;DHT22;51386;53.082;8.816;2023-07-29T15:39:09;24.90;73.30
64888;DHT22;51386;53.082;8.816;2023-07-29T15:41:36;24.80;73.80